sensor_id;sensor_type;location;lat;lon;timestamp;P1;durP1;ratioP1;P2;durP2;ratioP2
76157;SDS011;64907;51.574;6.502;2023-04-01T00:01:00;4.15;;;2.25;;
76157;SDS011;64907;51.574;6.502;2023-04-01T00:03:26;2.08;;;1.92;;
76157;SDS011;64907;51.574;6.502;2023-04-01T00:05:52;6.03;;;2.00;;
76157;SDS011;64907;51.574;6.502;2023-04-01T00:08:18;5.25;;;2.58;;
76157;SDS011;64907;51.574;6.502;2023-04-01T00:10:43;7.80;;;2.40;;
76157;SDS011;64907;51.574;6.502;2023-04-01T00:13:09;7.35;;;2.42;;
76157;SDS011;64907;51.574;6.502;2023-04-01T00:15:35;4.57;;;2.47;;
76157;SDS011;64907;51.574;6.502;2023-04-01T00:18:00;6.00;;;2.53;;
76157;SDS011;64907;51.574;6.502;2023-04-01T00:20:25;4.45;;;2.25;;
76157;SDS011;64907;51.574;6.502;2023-04-01T00:22:51;6.57;;;2.33;;
76157;SDS011;64907;51.574;6.502;2023-04-01T00:25:16;3.50;;;2.08;;
76157;SDS011;64907;51.574;6.502;2023-04-01T00:27:41;2.80;;;2.22;;
76157;SDS011;64907;51.574;6.502;2023-04-01T00:30:07;5.93;;;2.60;;
76157;SDS011;64907;51.574;6.502;2023-04-01T00:32:32;4.35;;;2.28;;
76157;SDS011;64907;51.574;6.502;2023-04-01T00:34:57;2.38;;;2.00;;
76157;SDS011;64907;51.574;6.502;2023-04-01T00:37:26;6.60;;;2.35;;
76157;SDS011;64907;51.574;6.502;2023-04-01T00:39:52;7.68;;;2.10;;
76157;SDS011;64907;51.574;6.502;2023-04-01T00:42:17;2.63;;;1.77;;
76157;SDS011;64907;51.574;6.502;2023-04-01T00:44:44;3.42;;;2.10;;
76157;SDS011;64907;51.574;6.502;2023-04-01T00:47:09;3.92;;;2.05;;
76157;SDS011;64907;51.574;6.502;2023-04-01T00:49:37;4.18;;;1.98;;
76157;SDS011;64907;51.574;6.502;2023-04-01T00:52:03;4.43;;;2.05;;
76157;SDS011;64907;51.574;6.502;2023-04-01T00:54:29;4.32;;;2.20;;
76157;SDS011;64907;51.574;6.502;2023-04-01T00:56:56;2.58;;;1.88;;
76157;SDS011;64907;51.574;6.502;2023-04-01T00:59:23;4.65;;;1.92;;
76157;SDS011;64907;51.574;6.502;2023-04-01T01:01:49;4.05;;;1.60;;
76157;SDS011;64907;51.574;6.502;2023-04-01T01:04:25;4.50;;;1.70;;
76157;SDS011;64907;51.574;6.502;2023-04-01T01:09:51;1.58;;;1.48;;
76157;SDS011;64907;51.574;6.502;2023-04-01T01:12:21;2.50;;;1.75;;
76157;SDS011;64907;51.574;6.502;2023-04-01T01:19:57;3.35;;;2.15;;
76157;SDS011;64907;51.574;6.502;2023-04-01T01:27:28;2.20;;;2.00;;
76157;SDS011;64907;51.574;6.502;2023-04-01T01:37:25;5.72;;;2.03;;
76157;SDS011;64907;51.574;6.502;2023-04-01T01:39:53;3.25;;;2.10;;
76157;SDS011;64907;51.574;6.502;2023-04-01T01:42:19;1.92;;;1.73;;
76157;SDS011;64907;51.574;6.502;2023-04-01T01:44:45;2.28;;;2.08;;
76157;SDS011;64907;51.574;6.502;2023-04-01T01:47:11;1.88;;;1.75;;
76157;SDS011;64907;51.574;6.502;2023-04-01T01:49:38;3.03;;;1.95;;
76157;SDS011;64907;51.574;6.502;2023-04-01T01:52:04;2.40;;;2.30;;
76157;SDS011;64907;51.574;6.502;2023-04-01T01:54:29;3.05;;;1.80;;
76157;SDS011;64907;51.574;6.502;2023-04-01T01:57:05;3.70;;;1.58;;
76157;SDS011;64907;51.574;6.502;2023-04-01T01:59:31;2.65;;;1.60;;
76157;SDS011;64907;51.574;6.502;2023-04-01T02:01:57;3.22;;;1.60;;
76157;SDS011;64907;51.574;6.502;2023-04-01T02:04:23;2.20;;;1.80;;
76157;SDS011;64907;51.574;6.502;2023-04-01T02:06:53;3.42;;;1.67;;
76157;SDS011;64907;51.574;6.502;2023-04-01T02:09:20;2.55;;;1.73;;
76157;SDS011;64907;51.574;6.502;2023-04-01T02:11:48;2.30;;;1.63;;
76157;SDS011;64907;51.574;6.502;2023-04-01T02:14:18;3.05;;;1.65;;
76157;SDS011;64907;51.574;6.502;2023-04-01T02:17:28;1.70;;;1.52;;
76157;SDS011;64907;51.574;6.502;2023-04-01T02:19:35;3.38;;;1.40;;
76157;SDS011;64907;51.574;6.502;2023-04-01T02:22:02;2.17;;;1.40;;
76157;SDS011;64907;51.574;6.502;2023-04-01T02:24:30;1.30;;;1.30;;
76157;SDS011;64907;51.574;6.502;2023-04-01T02:26:56;1.42;;;1.33;;
76157;SDS011;64907;51.574;6.502;2023-04-01T02:29:21;1.33;;;1.23;;
76157;SDS011;64907;51.574;6.502;2023-04-01T02:31:48;1.73;;;1.45;;
76157;SDS011;64907;51.574;6.502;2023-04-01T02:34:14;2.78;;;1.52;;
76157;SDS011;64907;51.574;6.502;2023-04-01T02:36:39;1.58;;;1.27;;
76157;SDS011;64907;51.574;6.502;2023-04-01T02:39:06;1.55;;;1.45;;
76157;SDS011;64907;51.574;6.502;2023-04-01T02:41:37;1.50;;;1.20;;
76157;SDS011;64907;51.574;6.502;2023-04-01T02:44:03;2.75;;;1.35;;
76157;SDS011;64907;51.574;6.502;2023-04-01T02:46:28;3.65;;;1.38;;
76157;SDS011;64907;51.574;6.502;2023-04-01T02:48:53;2.60;;;1.53;;
76157;SDS011;64907;51.574;6.502;2023-04-01T02:51:18;1.40;;;1.40;;
76157;SDS011;64907;51.574;6.502;2023-04-01T02:53:43;2.05;;;1.90;;
76157;SDS011;64907;51.574;6.502;2023-04-01T02:56:09;1.73;;;1.60;;
76157;SDS011;64907;51.574;6.502;2023-04-01T02:58:34;2.05;;;1.83;;
76157;SDS011;64907;51.574;6.502;2023-04-01T03:01:00;2.78;;;1.83;;
76157;SDS011;64907;51.574;6.502;2023-04-01T03:03:25;2.35;;;2.17;;
76157;SDS011;64907;51.574;6.502;2023-04-01T03:05:50;2.03;;;1.92;;
76157;SDS011;64907;51.574;6.502;2023-04-01T03:08:16;2.83;;;2.72;;
76157;SDS011;64907;51.574;6.502;2023-04-01T03:10:41;2.77;;;2.67;;
76157;SDS011;64907;51.574;6.502;2023-04-01T03:13:06;3.33;;;2.70;;
76157;SDS011;64907;51.574;6.502;2023-04-01T03:15:31;3.58;;;3.35;;
76157;SDS011;64907;51.574;6.502;2023-04-01T03:17:57;3.83;;;3.30;;
76157;SDS011;64907;51.574;6.502;2023-04-01T03:20:22;4.32;;;3.20;;
76157;SDS011;64907;51.574;6.502;2023-04-01T03:22:47;4.43;;;3.90;;
76157;SDS011;64907;51.574;6.502;2023-04-01T03:25:12;3.90;;;3.70;;
76157;SDS011;64907;51.574;6.502;2023-04-01T03:27:37;4.75;;;4.45;;
76157;SDS011;64907;51.574;6.502;2023-04-01T03:30:03;3.70;;;3.43;;
76157;SDS011;64907;51.574;6.502;2023-04-01T03:32:28;4.80;;;3.67;;
76157;SDS011;64907;51.574;6.502;2023-04-01T03:34:54;4.47;;;4.07;;
76157;SDS011;64907;51.574;6.502;2023-04-01T03:37:19;4.50;;;4.18;;
76157;SDS011;64907;51.574;6.502;2023-04-01T03:39:44;4.07;;;3.78;;
76157;SDS011;64907;51.574;6.502;2023-04-01T03:42:10;5.43;;;4.03;;
76157;SDS011;64907;51.574;6.502;2023-04-01T03:44:35;4.03;;;3.75;;
76157;SDS011;64907;51.574;6.502;2023-04-01T03:47:01;4.22;;;3.92;;
76157;SDS011;64907;51.574;6.502;2023-04-01T03:49:26;4.38;;;4.00;;
76157;SDS011;64907;51.574;6.502;2023-04-01T03:51:51;5.07;;;4.63;;
76157;SDS011;64907;51.574;6.502;2023-04-01T03:54:16;4.82;;;4.43;;
76157;SDS011;64907;51.574;6.502;2023-04-01T03:56:42;6.38;;;5.15;;
76157;SDS011;64907;51.574;6.502;2023-04-01T03:59:08;5.23;;;4.83;;
76157;SDS011;64907;51.574;6.502;2023-04-01T04:01:33;5.70;;;5.30;;
76157;SDS011;64907;51.574;6.502;2023-04-01T04:03:59;6.57;;;6.00;;
76157;SDS011;64907;51.574;6.502;2023-04-01T04:06:25;8.65;;;7.45;;
76157;SDS011;64907;51.574;6.502;2023-04-01T04:08:50;7.70;;;7.00;;
76157;SDS011;64907;51.574;6.502;2023-04-01T04:11:16;12.33;;;8.40;;
76157;SDS011;64907;51.574;6.502;2023-04-01T04:13:42;8.38;;;6.95;;
76157;SDS011;64907;51.574;6.502;2023-04-01T04:16:07;9.70;;;7.28;;
76157;SDS011;64907;51.574;6.502;2023-04-01T04:18:33;8.85;;;7.78;;
76157;SDS011;64907;51.574;6.502;2023-04-01T04:20:58;9.43;;;8.30;;
76157;SDS011;64907;51.574;6.502;2023-04-01T04:23:23;9.87;;;8.50;;
76157;SDS011;64907;51.574;6.502;2023-04-01T04:25:53;8.55;;;7.78;;
76157;SDS011;64907;51.574;6.502;2023-04-01T04:28:18;10.85;;;8.50;;
76157;SDS011;64907;51.574;6.502;2023-04-01T04:30:43;9.20;;;8.30;;
76157;SDS011;64907;51.574;6.502;2023-04-01T04:33:08;9.67;;;8.70;;
76157;SDS011;64907;51.574;6.502;2023-04-01T04:35:33;9.47;;;8.60;;
76157;SDS011;64907;51.574;6.502;2023-04-01T04:37:59;12.25;;;8.95;;
76157;SDS011;64907;51.574;6.502;2023-04-01T04:40:24;11.47;;;8.87;;
76157;SDS011;64907;51.574;6.502;2023-04-01T04:42:49;11.57;;;9.13;;
76157;SDS011;64907;51.574;6.502;2023-04-01T04:45:14;10.20;;;9.20;;
76157;SDS011;64907;51.574;6.502;2023-04-01T04:47:39;11.15;;;8.88;;
76157;SDS011;64907;51.574;6.502;2023-04-01T04:50:05;10.45;;;9.35;;
76157;SDS011;64907;51.574;6.502;2023-04-01T04:52:30;10.93;;;9.82;;
76157;SDS011;64907;51.574;6.502;2023-04-01T04:54:55;10.97;;;9.87;;
76157;SDS011;64907;51.574;6.502;2023-04-01T04:57:21;12.53;;;10.70;;
76157;SDS011;64907;51.574;6.502;2023-04-01T04:59:46;15.20;;;11.17;;
76157;SDS011;64907;51.574;6.502;2023-04-01T05:02:11;13.53;;;11.97;;
76157;SDS011;64907;51.574;6.502;2023-04-01T05:04:36;14.13;;;12.23;;
76157;SDS011;64907;51.574;6.502;2023-04-01T05:07:01;19.73;;;13.63;;
76157;SDS011;64907;51.574;6.502;2023-04-01T05:09:28;17.65;;;14.55;;
76157;SDS011;64907;51.574;6.502;2023-04-01T05:11:53;14.98;;;13.35;;
76157;SDS011;64907;51.574;6.502;2023-04-01T05:14:18;15.40;;;12.87;;
76157;SDS011;64907;51.574;6.502;2023-04-01T05:16:43;15.60;;;13.90;;
76157;SDS011;64907;51.574;6.502;2023-04-01T05:19:09;15.33;;;13.73;;
76157;SDS011;64907;51.574;6.502;2023-04-01T05:21:34;14.23;;;12.70;;
76157;SDS011;64907;51.574;6.502;2023-04-01T05:23:59;15.07;;;13.52;;
76157;SDS011;64907;51.574;6.502;2023-04-01T05:26:25;15.88;;;13.15;;
76157;SDS011;64907;51.574;6.502;2023-04-01T05:28:50;14.40;;;12.90;;
76157;SDS011;64907;51.574;6.502;2023-04-01T05:31:15;18.92;;;12.85;;
76157;SDS011;64907;51.574;6.502;2023-04-01T05:33:40;12.57;;;11.35;;
76157;SDS011;64907;51.574;6.502;2023-04-01T05:36:06;14.50;;;13.00;;
76157;SDS011;64907;51.574;6.502;2023-04-01T05:38:31;12.75;;;11.35;;
76157;SDS011;64907;51.574;6.502;2023-04-01T05:41:00;15.00;;;13.40;;
76157;SDS011;64907;51.574;6.502;2023-04-01T05:43:26;15.48;;;13.88;;
76157;SDS011;64907;51.574;6.502;2023-04-01T05:45:51;16.27;;;13.52;;
76157;SDS011;64907;51.574;6.502;2023-04-01T05:48:16;15.60;;;11.53;;
76157;SDS011;64907;51.574;6.502;2023-04-01T05:50:41;13.10;;;11.70;;
76157;SDS011;64907;51.574;6.502;2023-04-01T05:53:07;13.80;;;12.45;;
76157;SDS011;64907;51.574;6.502;2023-04-01T05:55:34;13.77;;;12.52;;
76157;SDS011;64907;51.574;6.502;2023-04-01T05:57:59;13.27;;;12.00;;
76157;SDS011;64907;51.574;6.502;2023-04-01T06:00:24;12.18;;;10.98;;
76157;SDS011;64907;51.574;6.502;2023-04-01T06:02:50;12.70;;;11.50;;
76157;SDS011;64907;51.574;6.502;2023-04-01T06:05:18;12.23;;;11.10;;
76157;SDS011;64907;51.574;6.502;2023-04-01T06:07:44;13.25;;;10.73;;
76157;SDS011;64907;51.574;6.502;2023-04-01T06:10:11;11.73;;;10.63;;
76157;SDS011;64907;51.574;6.502;2023-04-01T06:12:40;12.35;;;11.20;;
76157;SDS011;64907;51.574;6.502;2023-04-01T06:20:24;11.55;;;10.45;;
76157;SDS011;64907;51.574;6.502;2023-04-01T06:25:26;13.85;;;11.35;;
76157;SDS011;64907;51.574;6.502;2023-04-01T06:30:45;12.68;;;11.32;;
76157;SDS011;64907;51.574;6.502;2023-04-01T06:41:54;12.25;;;10.35;;
76157;SDS011;64907;51.574;6.502;2023-04-01T06:46:48;11.90;;;10.70;;
76157;SDS011;64907;51.574;6.502;2023-04-01T06:49:24;12.75;;;10.70;;
76157;SDS011;64907;51.574;6.502;2023-04-01T06:54:20;10.90;;;9.80;;
76157;SDS011;64907;51.574;6.502;2023-04-01T06:56:46;12.73;;;11.43;;
76157;SDS011;64907;51.574;6.502;2023-04-01T06:59:20;10.48;;;9.32;;
76157;SDS011;64907;51.574;6.502;2023-04-01T07:04:19;10.38;;;9.27;;
76157;SDS011;64907;51.574;6.502;2023-04-01T07:06:50;13.43;;;9.40;;
76157;SDS011;64907;51.574;6.502;2023-04-01T07:09:19;10.85;;;9.68;;
76157;SDS011;64907;51.574;6.502;2023-04-01T07:11:45;12.07;;;9.52;;
76157;SDS011;64907;51.574;6.502;2023-04-01T07:14:19;13.77;;;9.73;;
76157;SDS011;64907;51.574;6.502;2023-04-01T07:16:51;15.25;;;10.32;;
76157;SDS011;64907;51.574;6.502;2023-04-01T07:19:22;11.02;;;9.60;;
76157;SDS011;64907;51.574;6.502;2023-04-01T07:24:31;11.57;;;9.63;;
76157;SDS011;64907;51.574;6.502;2023-04-01T07:26:57;13.75;;;10.20;;
76157;SDS011;64907;51.574;6.502;2023-04-01T07:29:23;15.27;;;10.45;;
76157;SDS011;64907;51.574;6.502;2023-04-01T07:37:15;18.00;;;11.95;;
76157;SDS011;64907;51.574;6.502;2023-04-01T07:50:32;14.85;;;11.38;;
76157;SDS011;64907;51.574;6.502;2023-04-01T07:53:04;15.20;;;11.45;;
76157;SDS011;64907;51.574;6.502;2023-04-01T08:03:35;14.07;;;9.90;;
76157;SDS011;64907;51.574;6.502;2023-04-01T08:06:10;15.77;;;11.35;;
76157;SDS011;64907;51.574;6.502;2023-04-01T08:08:54;15.57;;;10.40;;
76157;SDS011;64907;51.574;6.502;2023-04-01T08:11:25;15.95;;;11.85;;
76157;SDS011;64907;51.574;6.502;2023-04-01T08:14:13;14.50;;;11.65;;
76157;SDS011;64907;51.574;6.502;2023-04-01T08:16:46;15.45;;;11.45;;
76157;SDS011;64907;51.574;6.502;2023-04-01T08:21:51;14.55;;;11.75;;
76157;SDS011;64907;51.574;6.502;2023-04-01T08:24:34;14.50;;;12.27;;
76157;SDS011;64907;51.574;6.502;2023-04-01T08:27:01;12.52;;;10.23;;
76157;SDS011;64907;51.574;6.502;2023-04-01T08:29:35;14.65;;;12.02;;
76157;SDS011;64907;51.574;6.502;2023-04-01T08:34:36;12.73;;;11.20;;
76157;SDS011;64907;51.574;6.502;2023-04-01T08:37:06;12.32;;;9.18;;
76157;SDS011;64907;51.574;6.502;2023-04-01T08:39:41;13.70;;;10.63;;
76157;SDS011;64907;51.574;6.502;2023-04-01T08:52:38;11.90;;;10.27;;
76157;SDS011;64907;51.574;6.502;2023-04-01T08:57:41;13.70;;;10.93;;
76157;SDS011;64907;51.574;6.502;2023-04-01T09:02:56;12.38;;;10.15;;
76157;SDS011;64907;51.574;6.502;2023-04-01T09:05:29;10.73;;;7.85;;
76157;SDS011;64907;51.574;6.502;2023-04-01T09:13:19;14.05;;;10.50;;
76157;SDS011;64907;51.574;6.502;2023-04-01T09:28:25;10.95;;;8.82;;
76157;SDS011;64907;51.574;6.502;2023-04-01T09:38:59;9.90;;;7.50;;
76157;SDS011;64907;51.574;6.502;2023-04-01T09:41:29;10.10;;;7.50;;
76157;SDS011;64907;51.574;6.502;2023-04-01T09:44:00;8.98;;;7.38;;
76157;SDS011;64907;51.574;6.502;2023-04-01T09:52:01;9.73;;;5.90;;
76157;SDS011;64907;51.574;6.502;2023-04-01T09:54:51;10.80;;;7.57;;
76157;SDS011;64907;51.574;6.502;2023-04-01T10:12:50;11.55;;;8.43;;
76157;SDS011;64907;51.574;6.502;2023-04-01T10:20:28;9.70;;;8.63;;
76157;SDS011;64907;51.574;6.502;2023-04-01T10:43:23;11.63;;;9.60;;
76157;SDS011;64907;51.574;6.502;2023-04-01T10:48:41;13.30;;;10.82;;
76157;SDS011;64907;51.574;6.502;2023-04-01T10:53:37;16.83;;;10.23;;
76157;SDS011;64907;51.574;6.502;2023-04-01T11:12:08;18.45;;;11.27;;
76157;SDS011;64907;51.574;6.502;2023-04-01T11:22:32;17.52;;;10.98;;
76157;SDS011;64907;51.574;6.502;2023-04-01T11:25:02;12.93;;;10.00;;
76157;SDS011;64907;51.574;6.502;2023-04-01T11:30:26;15.10;;;10.70;;
76157;SDS011;64907;51.574;6.502;2023-04-01T11:40:43;13.63;;;11.05;;
76157;SDS011;64907;51.574;6.502;2023-04-01T11:46:08;17.65;;;11.10;;
76157;SDS011;64907;51.574;6.502;2023-04-01T11:51:38;10.68;;;8.32;;
76157;SDS011;64907;51.574;6.502;2023-04-01T12:19:21;9.25;;;8.23;;
76157;SDS011;64907;51.574;6.502;2023-04-01T12:21:57;11.07;;;9.32;;
76157;SDS011;64907;51.574;6.502;2023-04-01T12:34:53;10.90;;;8.63;;
76157;SDS011;64907;51.574;6.502;2023-04-01T12:37:36;11.82;;;9.45;;
76157;SDS011;64907;51.574;6.502;2023-04-01T12:57:58;7.15;;;6.45;;
76157;SDS011;64907;51.574;6.502;2023-04-01T13:00:34;6.80;;;6.13;;
76157;SDS011;64907;51.574;6.502;2023-04-01T13:08:53;6.30;;;5.80;;
76157;SDS011;64907;51.574;6.502;2023-04-01T13:14:05;8.00;;;7.13;;
76157;SDS011;64907;51.574;6.502;2023-04-01T13:16:35;9.27;;;8.23;;
76157;SDS011;64907;51.574;6.502;2023-04-01T13:21:32;10.38;;;9.30;;
76157;SDS011;64907;51.574;6.502;2023-04-01T13:26:48;14.10;;;12.60;;
76157;SDS011;64907;51.574;6.502;2023-04-01T13:29:23;10.85;;;9.85;;
76157;SDS011;64907;51.574;6.502;2023-04-01T13:34:25;15.52;;;11.80;;
76157;SDS011;64907;51.574;6.502;2023-04-01T13:42:09;16.35;;;14.13;;
76157;SDS011;64907;51.574;6.502;2023-04-01T13:44:42;14.55;;;13.15;;
76157;SDS011;64907;51.574;6.502;2023-04-01T13:52:51;17.08;;;15.05;;
76157;SDS011;64907;51.574;6.502;2023-04-01T14:10:19;16.58;;;14.77;;
76157;SDS011;64907;51.574;6.502;2023-04-01T14:15:48;16.52;;;14.80;;
76157;SDS011;64907;51.574;6.502;2023-04-01T14:18:24;19.30;;;15.57;;
76157;SDS011;64907;51.574;6.502;2023-04-01T14:23:50;14.43;;;12.93;;
76157;SDS011;64907;51.574;6.502;2023-04-01T14:26:29;13.73;;;12.32;;
76157;SDS011;64907;51.574;6.502;2023-04-01T14:34:06;12.77;;;11.57;;
76157;SDS011;64907;51.574;6.502;2023-04-01T14:36:50;11.65;;;10.40;;
76157;SDS011;64907;51.574;6.502;2023-04-01T14:49:52;7.82;;;7.20;;
76157;SDS011;64907;51.574;6.502;2023-04-01T14:52:25;7.32;;;6.63;;
76157;SDS011;64907;51.574;6.502;2023-04-01T14:54:52;7.78;;;7.18;;
76157;SDS011;64907;51.574;6.502;2023-04-01T14:59:51;7.85;;;7.07;;
76157;SDS011;64907;51.574;6.502;2023-04-01T15:15:09;8.98;;;7.95;;
76157;SDS011;64907;51.574;6.502;2023-04-01T15:17:48;9.68;;;8.60;;
76157;SDS011;64907;51.574;6.502;2023-04-01T15:33:02;8.98;;;8.18;;
76157;SDS011;64907;51.574;6.502;2023-04-01T15:43:41;9.80;;;8.80;;
76157;SDS011;64907;51.574;6.502;2023-04-01T15:59:09;10.40;;;9.45;;
76157;SDS011;64907;51.574;6.502;2023-04-01T16:01:59;8.63;;;7.85;;
76157;SDS011;64907;51.574;6.502;2023-04-01T16:11:43;10.65;;;9.32;;
76157;SDS011;64907;51.574;6.502;2023-04-01T16:14:19;11.48;;;9.80;;
76157;SDS011;64907;51.574;6.502;2023-04-01T16:24:51;10.95;;;9.30;;
76157;SDS011;64907;51.574;6.502;2023-04-01T16:29:57;12.30;;;9.30;;
76157;SDS011;64907;51.574;6.502;2023-04-01T16:32:34;8.35;;;7.55;;
76157;SDS011;64907;51.574;6.502;2023-04-01T16:37:40;11.88;;;8.45;;
76157;SDS011;64907;51.574;6.502;2023-04-01T16:43:28;12.63;;;8.95;;
76157;SDS011;64907;51.574;6.502;2023-04-01T16:46:12;10.65;;;8.45;;
76157;SDS011;64907;51.574;6.502;2023-04-01T16:48:52;13.20;;;10.60;;
76157;SDS011;64907;51.574;6.502;2023-04-01T16:51:19;14.32;;;10.23;;
76157;SDS011;64907;51.574;6.502;2023-04-01T16:53:47;12.30;;;9.45;;
76157;SDS011;64907;51.574;6.502;2023-04-01T16:56:16;14.48;;;11.10;;
76157;SDS011;64907;51.574;6.502;2023-04-01T17:01:25;16.30;;;11.57;;
76157;SDS011;64907;51.574;6.502;2023-04-01T17:04:04;14.95;;;12.18;;
76157;SDS011;64907;51.574;6.502;2023-04-01T17:06:33;17.02;;;12.90;;
76157;SDS011;64907;51.574;6.502;2023-04-01T17:09:13;15.25;;;11.85;;
76157;SDS011;64907;51.574;6.502;2023-04-01T17:11:49;20.55;;;14.15;;
76157;SDS011;64907;51.574;6.502;2023-04-01T17:14:22;17.27;;;13.50;;
76157;SDS011;64907;51.574;6.502;2023-04-01T17:27:44;16.38;;;12.98;;
76157;SDS011;64907;51.574;6.502;2023-04-01T17:30:17;18.17;;;12.90;;
76157;SDS011;64907;51.574;6.502;2023-04-01T17:40:25;15.23;;;9.63;;
76157;SDS011;64907;51.574;6.502;2023-04-01T17:50:42;12.73;;;9.60;;
76157;SDS011;64907;51.574;6.502;2023-04-01T17:55:59;13.52;;;9.98;;
76157;SDS011;64907;51.574;6.502;2023-04-01T18:00:58;11.80;;;9.63;;
76157;SDS011;64907;51.574;6.502;2023-04-01T18:06:20;15.18;;;10.73;;
76157;SDS011;64907;51.574;6.502;2023-04-01T18:16:16;12.55;;;10.50;;
76157;SDS011;64907;51.574;6.502;2023-04-01T18:24:11;12.55;;;10.80;;
76157;SDS011;64907;51.574;6.502;2023-04-01T18:26:40;10.73;;;9.75;;
76157;SDS011;64907;51.574;6.502;2023-04-01T18:29:16;11.52;;;10.35;;
76157;SDS011;64907;51.574;6.502;2023-04-01T18:31:45;12.43;;;11.25;;
76157;SDS011;64907;51.574;6.502;2023-04-01T18:34:15;11.95;;;10.85;;
76157;SDS011;64907;51.574;6.502;2023-04-01T18:36:47;9.85;;;9.05;;
76157;SDS011;64907;51.574;6.502;2023-04-01T18:44:46;8.88;;;8.13;;
76157;SDS011;64907;51.574;6.502;2023-04-01T18:52:42;7.10;;;6.60;;
76157;SDS011;64907;51.574;6.502;2023-04-01T18:57:53;8.25;;;7.65;;
76157;SDS011;64907;51.574;6.502;2023-04-01T19:02:45;7.30;;;6.80;;
76157;SDS011;64907;51.574;6.502;2023-04-01T19:07:54;7.32;;;6.72;;
76157;SDS011;64907;51.574;6.502;2023-04-01T19:18:11;6.10;;;5.78;;
76157;SDS011;64907;51.574;6.502;2023-04-01T19:20:51;7.60;;;7.00;;
76157;SDS011;64907;51.574;6.502;2023-04-01T19:25:51;8.15;;;7.55;;
76157;SDS011;64907;51.574;6.502;2023-04-01T19:33:43;9.23;;;8.52;;
76157;SDS011;64907;51.574;6.502;2023-04-01T19:36:26;8.18;;;7.65;;
76157;SDS011;64907;51.574;6.502;2023-04-01T19:41:31;7.20;;;6.70;;
76157;SDS011;64907;51.574;6.502;2023-04-01T19:46:51;6.78;;;6.30;;
76157;SDS011;64907;51.574;6.502;2023-04-01T19:51:47;4.95;;;4.75;;
76157;SDS011;64907;51.574;6.502;2023-04-01T19:59:23;4.80;;;4.60;;
76157;SDS011;64907;51.574;6.502;2023-04-01T20:04:44;5.18;;;4.95;;
76157;SDS011;64907;51.574;6.502;2023-04-01T20:07:17;5.80;;;5.40;;
76157;SDS011;64907;51.574;6.502;2023-04-01T20:09:56;5.40;;;5.20;;
76157;SDS011;64907;51.574;6.502;2023-04-01T20:12:30;4.95;;;4.75;;
76157;SDS011;64907;51.574;6.502;2023-04-01T20:15:00;4.32;;;4.13;;
76157;SDS011;64907;51.574;6.502;2023-04-01T20:17:27;4.60;;;4.40;;
76157;SDS011;64907;51.574;6.502;2023-04-01T20:24:59;4.15;;;3.97;;
76157;SDS011;64907;51.574;6.502;2023-04-01T20:27:27;3.97;;;3.88;;
76157;SDS011;64907;51.574;6.502;2023-04-01T20:30:12;4.30;;;4.10;;
76157;SDS011;64907;51.574;6.502;2023-04-01T20:40:38;4.70;;;4.50;;
76157;SDS011;64907;51.574;6.502;2023-04-01T20:45:36;4.85;;;4.65;;
76157;SDS011;64907;51.574;6.502;2023-04-01T20:50:49;6.45;;;6.05;;
76157;SDS011;64907;51.574;6.502;2023-04-01T20:53:28;5.60;;;5.20;;
76157;SDS011;64907;51.574;6.502;2023-04-01T21:19:30;5.40;;;5.10;;
76157;SDS011;64907;51.574;6.502;2023-04-01T21:24:32;5.90;;;5.60;;
76157;SDS011;64907;51.574;6.502;2023-04-01T21:29:47;5.30;;;4.82;;
76157;SDS011;64907;51.574;6.502;2023-04-01T21:32:22;6.03;;;5.63;;
76157;SDS011;64907;51.574;6.502;2023-04-01T21:37:22;5.13;;;4.93;;
76157;SDS011;64907;51.574;6.502;2023-04-01T21:42:25;5.82;;;5.53;;
76157;SDS011;64907;51.574;6.502;2023-04-01T22:03:10;7.37;;;6.87;;
76157;SDS011;64907;51.574;6.502;2023-04-01T22:05:41;7.20;;;6.72;;
76157;SDS011;64907;51.574;6.502;2023-04-01T22:08:28;7.30;;;6.80;;
76157;SDS011;64907;51.574;6.502;2023-04-01T22:11:04;8.05;;;7.35;;
76157;SDS011;64907;51.574;6.502;2023-04-01T22:24:08;8.68;;;8.07;;
76157;SDS011;64907;51.574;6.502;2023-04-01T22:26:48;8.13;;;7.63;;
76157;SDS011;64907;51.574;6.502;2023-04-01T22:32:02;7.97;;;7.38;;
76157;SDS011;64907;51.574;6.502;2023-04-01T22:37:18;7.47;;;6.88;;
76157;SDS011;64907;51.574;6.502;2023-04-01T22:42:25;7.80;;;7.30;;
76157;SDS011;64907;51.574;6.502;2023-04-01T22:45:05;7.78;;;7.10;;
76157;SDS011;64907;51.574;6.502;2023-04-01T22:50:09;7.07;;;6.60;;
76157;SDS011;64907;51.574;6.502;2023-04-01T22:52:42;6.90;;;6.50;;
76157;SDS011;64907;51.574;6.502;2023-04-01T22:55:13;6.43;;;6.05;;
76157;SDS011;64907;51.574;6.502;2023-04-01T23:00:35;6.07;;;5.68;;
76157;SDS011;64907;51.574;6.502;2023-04-01T23:03:06;6.45;;;6.05;;
76157;SDS011;64907;51.574;6.502;2023-04-01T23:05:36;5.65;;;5.25;;
76157;SDS011;64907;51.574;6.502;2023-04-01T23:16:18;5.22;;;5.03;;
76157;SDS011;64907;51.574;6.502;2023-04-01T23:18:50;4.32;;;4.22;;
76157;SDS011;64907;51.574;6.502;2023-04-01T23:24:33;4.78;;;4.57;;
76157;SDS011;64907;51.574;6.502;2023-04-01T23:27:03;4.97;;;4.72;;
76157;SDS011;64907;51.574;6.502;2023-04-01T23:29:30;5.63;;;5.22;;
76157;SDS011;64907;51.574;6.502;2023-04-01T23:32:03;6.07;;;5.78;;
76157;SDS011;64907;51.574;6.502;2023-04-01T23:34:32;5.65;;;5.35;;
76157;SDS011;64907;51.574;6.502;2023-04-01T23:37:00;5.47;;;5.18;;
76157;SDS011;64907;51.574;6.502;2023-04-01T23:39:36;4.63;;;4.43;;
76157;SDS011;64907;51.574;6.502;2023-04-01T23:42:06;5.13;;;4.93;;
76157;SDS011;64907;51.574;6.502;2023-04-01T23:44:33;4.85;;;4.65;;
76157;SDS011;64907;51.574;6.502;2023-04-01T23:46:58;5.20;;;5.00;;
76157;SDS011;64907;51.574;6.502;2023-04-01T23:49:27;4.70;;;4.30;;
76157;SDS011;64907;51.574;6.502;2023-04-01T23:52:02;4.75;;;4.45;;
76157;SDS011;64907;51.574;6.502;2023-04-01T23:54:34;4.03;;;3.90;;
76157;SDS011;64907;51.574;6.502;2023-04-01T23:57:11;4.03;;;3.67;;
76157;SDS011;64907;51.574;6.502;2023-04-01T23:59:37;4.82;;;4.53;;
